Time;durP1;ratioP1;P1;durP2;ratioP2;P2;SDS_P1;SDS_P2;PMS_P1;PMS_P2;Temp;Humidity;BMP_temperature;BMP_pressure;BME280_temperature;BME280_humidity;BME280_pressure;Samples;Min_cycle;Max_cycle;Signal;HPM_P1;HPM_P2
2022/06/28 00:00:17;;;;;;;4.72;2.13;;;;;;;;;;10357607;28;20033;-45
2022/06/28 00:05:18;;;;;;;9.25;2.30;;;;;;;;;;10353094;28;20121;-44
2022/06/28 00:10:19;;;;;;;5.03;2.10;;;;;;;;;;10339853;28;20052;-44
2022/06/28 00:20:39;;;;;;;4.45;1.90;;;;;;;;;;10348313;28;20482;-45
2022/06/28 00:25:40;;;;;;;3.63;1.70;;;;;;;;;;10347644;28;20053;-45
2022/06/28 00:30:40;;;;;;;5.63;2.15;;;;;;;;;;10347011;28;20547;-44
2022/06/28 00:35:41;;;;;;;6.55;2.08;;;;;;;;;;10341822;28;20385;-44
2022/06/28 00:40:49;;;;;;;7.88;2.33;;;;;;;;;;10326266;28;20041;-44
2022/06/28 00:45:51;;;;;;;3.28;2.00;;;;;;;;;;10317385;28;20030;-44
2022/06/28 00:50:53;;;;;;;8.60;2.35;;;;;;;;;;10347690;28;20035;-44
2022/06/28 00:55:53;;;;;;;5.60;2.53;;;;;;;;;;10336189;28;20034;-47
2022/06/28 01:00:54;;;;;;;4.18;1.90;;;;;;;;;;10336128;28;20037;-44
2022/06/28 01:05:55;;;;;;;8.73;2.05;;;;;;;;;;10325677;28;20034;-45
2022/06/28 01:10:55;;;;;;;7.25;1.70;;;;;;;;;;10345261;28;20034;-44
2022/06/28 01:15:56;;;;;;;5.15;1.95;;;;;;;;;;10354793;28;20030;-44
2022/06/28 01:20:56;;;;;;;6.25;1.65;;;;;;;;;;10341404;28;20368;-44
2022/06/28 01:25:59;;;;;;;4.70;1.95;;;;;;;;;;10337168;28;20498;-44
2022/06/28 01:31:00;;;;;;;4.60;1.65;;;;;;;;;;10337971;28;20031;-45
2022/06/28 01:36:00;;;;;;;8.27;2.22;;;;;;;;;;10328867;28;20057;-44
2022/06/28 01:41:01;;;;;;;4.88;1.70;;;;;;;;;;10314014;28;20488;-44
2022/06/28 01:46:06;;;;;;;3.70;1.67;;;;;;;;;;10327016;28;20028;-44
2022/06/28 01:51:07;;;;;;;6.53;2.30;;;;;;;;;;10325632;28;20078;-44
2022/06/28 01:56:07;;;;;;;8.80;2.20;;;;;;;;;;10333422;28;20377;-45
2022/06/28 02:01:08;;;;;;;6.38;1.80;;;;;;;;;;10352201;28;20053;-44
2022/06/28 02:06:09;;;;;;;4.30;1.80;;;;;;;;;;10332342;28;20031;-44
2022/06/28 02:11:10;;;;;;;3.83;2.00;;;;;;;;;;10340033;28;20113;-44
2022/06/28 02:16:10;;;;;;;6.03;2.00;;;;;;;;;;10352772;28;20046;-44
2022/06/28 02:21:11;;;;;;;3.97;1.67;;;;;;;;;;10347163;28;20303;-45
2022/06/28 02:26:13;;;;;;;7.80;2.17;;;;;;;;;;10335735;28;20042;-44
2022/06/28 02:31:15;;;;;;;9.23;1.98;;;;;;;;;;10327977;28;20110;-45
2022/06/28 02:41:35;;;;;;;5.07;1.73;;;;;;;;;;10323871;28;20034;-45
2022/06/28 02:46:36;;;;;;;2.88;1.55;;;;;;;;;;10327735;28;20058;-44
2022/06/28 02:51:36;;;;;;;5.22;1.65;;;;;;;;;;10331790;28;20035;-44
2022/06/28 02:56:37;;;;;;;4.03;1.75;;;;;;;;;;10330672;28;20089;-45
2022/06/28 03:01:38;;;;;;;5.25;1.70;;;;;;;;;;10339384;28;20093;-45
2022/06/28 03:06:39;;;;;;;5.07;1.95;;;;;;;;;;10338888;28;20026;-45
2022/06/28 03:11:39;;;;;;;6.53;1.88;;;;;;;;;;10330824;28;20018;-44
2022/06/28 03:16:40;;;;;;;8.18;1.70;;;;;;;;;;10326243;28;20034;-45
2022/06/28 03:21:41;;;;;;;3.20;1.42;;;;;;;;;;10330417;28;20026;-60
2022/06/28 03:26:41;;;;;;;3.33;1.50;;;;;;;;;;10322968;28;20122;-54
2022/06/28 03:31:42;;;;;;;4.18;1.40;;;;;;;;;;10328962;28;20030;-60
2022/06/28 03:36:42;;;;;;;2.97;1.45;;;;;;;;;;10330903;28;20038;-55
2022/06/28 03:41:43;;;;;;;3.35;1.50;;;;;;;;;;10329706;28;20172;-61
2022/06/28 03:46:44;;;;;;;4.60;1.63;;;;;;;;;;10329705;28;20541;-56
2022/06/28 03:51:45;;;;;;;3.95;1.60;;;;;;;;;;10329900;28;20026;-56
2022/06/28 03:56:46;;;;;;;6.28;1.30;;;;;;;;;;10341836;28;20038;-57
2022/06/28 04:01:47;;;;;;;5.35;1.77;;;;;;;;;;10327560;28;20023;-54
2022/06/28 04:06:47;;;;;;;7.30;1.48;;;;;;;;;;10329157;28;20061;-60
2022/06/28 04:11:48;;;;;;;2.08;1.33;;;;;;;;;;10330593;28;20041;-61
2022/06/28 04:16:49;;;;;;;4.10;1.75;;;;;;;;;;10326396;28;20038;-57
2022/06/28 04:21:49;;;;;;;4.10;1.35;;;;;;;;;;10330403;28;20033;-57
2022/06/28 04:26:50;;;;;;;4.15;1.50;;;;;;;;;;10327307;28;20042;-60
2022/06/28 04:31:50;;;;;;;6.15;1.70;;;;;;;;;;10312271;28;20022;-57
2022/06/28 04:36:51;;;;;;;3.92;1.60;;;;;;;;;;10327069;28;20065;-60
2022/06/28 04:41:52;;;;;;;4.97;1.65;;;;;;;;;;10327856;28;20706;-58
2022/06/28 04:46:52;;;;;;;4.55;1.55;;;;;;;;;;10327088;28;20026;-60
2022/06/28 04:51:53;;;;;;;3.38;1.55;;;;;;;;;;10327254;28;20034;-58
2022/06/28 04:56:54;;;;;;;2.22;1.63;;;;;;;;;;10326161;28;20140;-61
2022/06/28 05:01:54;;;;;;;24.42;2.80;;;;;;;;;;10325028;28;20022;-60
2022/06/28 05:06:55;;;;;;;5.55;1.60;;;;;;;;;;10327363;28;20030;-59
2022/06/28 05:11:56;;;;;;;11.77;1.67;;;;;;;;;;10328613;28;20030;-61
2022/06/28 05:16:57;;;;;;;4.82;1.55;;;;;;;;;;10326339;28;20026;-61
2022/06/28 05:21:57;;;;;;;7.57;1.67;;;;;;;;;;10325675;28;20474;-61
2022/06/28 05:26:58;;;;;;;3.78;1.58;;;;;;;;;;10323700;28;20049;-60
2022/06/28 05:31:59;;;;;;;8.48;2.45;;;;;;;;;;10323430;28;20500;-61
2022/06/28 05:36:59;;;;;;;21.70;3.22;;;;;;;;;;10320522;28;20041;-57
2022/06/28 05:42:00;;;;;;;82.32;8.50;;;;;;;;;;10324464;28;20038;-59
2022/06/28 05:47:00;;;;;;;40.33;5.72;;;;;;;;;;10321494;28;20358;-50
2022/06/28 05:52:01;;;;;;;48.50;5.55;;;;;;;;;;10325201;28;20031;-62
2022/06/28 05:57:02;;;;;;;32.10;4.45;;;;;;;;;;10317974;28;20034;-61
2022/06/28 06:02:03;;;;;;;35.00;4.72;;;;;;;;;;10330990;28;20040;-59
2022/06/28 06:07:04;;;;;;;26.92;4.63;;;;;;;;;;10323997;28;20117;-58
2022/06/28 06:12:05;;;;;;;29.95;4.32;;;;;;;;;;10326560;28;20262;-53
2022/06/28 06:17:05;;;;;;;28.25;4.57;;;;;;;;;;10324825;28;20066;-55
2022/06/28 06:22:06;;;;;;;22.27;4.88;;;;;;;;;;10329136;28;20129;-59
2022/06/28 06:27:07;;;;;;;22.33;4.70;;;;;;;;;;10335938;28;20046;-60
2022/06/28 06:32:07;;;;;;;19.40;4.57;;;;;;;;;;10332333;28;20030;-59
2022/06/28 06:37:08;;;;;;;28.20;4.47;;;;;;;;;;10332335;28;20053;-58
2022/06/28 06:42:08;;;;;;;26.33;5.63;;;;;;;;;;10331909;28;20033;-61
2022/06/28 06:47:09;;;;;;;32.42;5.50;;;;;;;;;;10332314;28;20071;-61
2022/06/28 06:52:10;;;;;;;29.52;5.65;;;;;;;;;;10334937;28;20116;-61
2022/06/28 06:57:10;;;;;;;26.65;4.53;;;;;;;;;;10330627;28;20120;-59
2022/06/28 07:02:11;;;;;;;30.65;5.05;;;;;;;;;;10331706;28;20605;-62
2022/06/28 07:07:12;;;;;;;25.85;4.78;;;;;;;;;;10330338;28;20414;-63
2022/06/28 07:12:12;;;;;;;23.30;5.15;;;;;;;;;;10331403;28;20026;-62
2022/06/28 07:17:13;;;;;;;27.77;4.80;;;;;;;;;;10330790;28;20444;-62
2022/06/28 07:22:13;;;;;;;26.40;5.93;;;;;;;;;;10330203;28;20022;-59
2022/06/28 07:27:14;;;;;;;25.52;5.30;;;;;;;;;;10330531;28;20505;-62
2022/06/28 07:32:15;;;;;;;25.42;4.90;;;;;;;;;;10316017;28;20398;-62
2022/06/28 07:37:16;;;;;;;22.38;4.68;;;;;;;;;;10332641;28;20101;-62
2022/06/28 07:42:16;;;;;;;27.50;5.28;;;;;;;;;;10330076;28;20470;-63
2022/06/28 07:47:17;;;;;;;29.90;5.43;;;;;;;;;;10326765;28;20050;-62
2022/06/28 07:52:37;;;;;;;24.70;4.60;;;;;;;;;;10332482;28;20029;-61
2022/06/28 07:57:38;;;;;;;23.42;5.00;;;;;;;;;;10328728;28;20041;-63
2022/06/28 08:02:38;;;;;;;26.65;4.45;;;;;;;;;;10329351;28;20038;-62
2022/06/28 08:07:39;;;;;;;28.40;4.40;;;;;;;;;;10328699;28;20033;-63
2022/06/28 08:12:41;;;;;;;25.20;4.82;;;;;;;;;;10330720;28;20049;-59
2022/06/28 08:17:41;;;;;;;31.38;5.38;;;;;;;;;;10327575;28;20352;-62
2022/06/28 08:22:42;;;;;;;27.40;4.38;;;;;;;;;;10317287;28;20026;-59
2022/06/28 08:27:43;;;;;;;39.75;5.72;;;;;;;;;;10328141;28;20061;-62
2022/06/28 08:32:43;;;;;;;32.90;5.40;;;;;;;;;;10327707;28;20027;-60
2022/06/28 08:37:44;;;;;;;38.13;5.75;;;;;;;;;;10326369;28;20089;-60
2022/06/28 08:42:51;;;;;;;31.30;5.57;;;;;;;;;;10327266;28;20030;-62
2022/06/28 08:47:56;;;;;;;28.23;5.10;;;;;;;;;;10327529;28;20116;-62
2022/06/28 08:52:59;;;;;;;29.05;5.15;;;;;;;;;;10326969;28;20080;-62
2022/06/28 08:58:07;;;;;;;34.60;5.07;;;;;;;;;;10326265;28;20118;-59
2022/06/28 09:03:08;;;;;;;43.08;5.55;;;;;;;;;;10329552;28;20030;-61
2022/06/28 09:08:09;;;;;;;38.03;5.72;;;;;;;;;;10325954;28;20238;-62
2022/06/28 09:13:15;;;;;;;36.60;5.53;;;;;;;;;;10332028;28;20573;-61
2022/06/28 09:18:17;;;;;;;41.28;5.72;;;;;;;;;;10307240;28;20077;-55
2022/06/28 09:23:40;;;;;;;31.70;5.55;;;;;;;;;;10324717;28;20061;-55
2022/06/28 09:28:50;;;;;;;28.17;5.13;;;;;;;;;;10322444;28;20045;-59
2022/06/28 09:34:00;;;;;;;26.73;5.18;;;;;;;;;;10332091;28;20466;-61
2022/06/28 09:39:14;;;;;;;25.38;5.47;;;;;;;;;;10323539;28;20113;-57
2022/06/28 09:44:17;;;;;;;28.63;5.85;;;;;;;;;;10319909;28;20037;-63
2022/06/28 09:49:17;;;;;;;21.50;4.68;;;;;;;;;;10316346;28;20477;-55
2022/06/28 09:54:20;;;;;;;36.78;5.00;;;;;;;;;;10317171;28;20030;-62
2022/06/28 09:59:23;;;;;;;22.23;5.32;;;;;;;;;;10325626;28;20038;-55
2022/06/28 10:04:27;;;;;;;27.20;4.75;;;;;;;;;;10324737;28;20034;-60
2022/06/28 10:09:27;;;;;;;26.17;4.47;;;;;;;;;;10326361;28;20041;-62
2022/06/28 10:19:48;;;;;;;23.83;4.40;;;;;;;;;;10333290;28;20030;-63
2022/06/28 10:25:02;;;;;;;24.85;4.35;;;;;;;;;;10331639;28;20564;-63
2022/06/28 10:30:14;;;;;;;24.60;4.57;;;;;;;;;;10319968;28;20057;-63
2022/06/28 10:35:36;;;;;;;22.42;5.45;;;;;;;;;;10331924;28;20399;-62
2022/06/28 10:40:49;;;;;;;22.73;4.47;;;;;;;;;;10331888;28;20045;-60
2022/06/28 10:46:05;;;;;;;24.58;4.10;;;;;;;;;;10322091;28;20061;-62
2022/06/28 10:51:06;;;;;;;16.88;4.18;;;;;;;;;;10327910;28;20026;-59
2022/06/28 10:56:12;;;;;;;15.27;3.85;;;;;;;;;;10330624;28;20077;-59
2022/06/28 11:01:13;;;;;;;15.57;3.67;;;;;;;;;;10326088;28;20022;-61
2022/06/28 11:06:15;;;;;;;17.25;4.80;;;;;;;;;;10330276;28;20026;-62
2022/06/28 11:11:15;;;;;;;15.68;4.75;;;;;;;;;;10326120;28;20097;-60
2022/06/28 11:16:47;;;;;;;23.67;4.50;;;;;;;;;;10320157;28;20084;-55
2022/06/28 11:21:48;;;;;;;19.52;4.30;;;;;;;;;;10340241;28;20033;-62
2022/06/28 11:32:39;;;;;;;18.85;4.57;;;;;;;;;;10331313;28;20038;-61
2022/06/28 11:37:54;;;;;;;21.98;4.47;;;;;;;;;;10339803;28;20498;-58
2022/06/28 11:43:08;;;;;;;19.05;3.90;;;;;;;;;;10335423;28;20030;-62
2022/06/28 11:48:17;;;;;;;21.80;5.35;;;;;;;;;;10344317;28;20454;-57
2022/06/28 11:53:20;;;;;;;19.48;4.35;;;;;;;;;;10328265;28;20032;-62
2022/06/28 11:58:31;;;;;;;28.83;5.53;;;;;;;;;;10327402;28;20073;-60
2022/06/28 12:03:42;;;;;;;17.77;3.95;;;;;;;;;;10322874;28;20391;-52
2022/06/28 12:08:51;;;;;;;15.43;3.50;;;;;;;;;;10323507;28;20512;-58
2022/06/28 12:14:02;;;;;;;16.08;4.15;;;;;;;;;;10318284;28;20030;-59
2022/06/28 12:19:09;;;;;;;12.57;3.45;;;;;;;;;;10326579;28;20121;-61
2022/06/28 12:24:10;;;;;;;19.92;4.20;;;;;;;;;;10323082;28;20125;-62
2022/06/28 12:29:16;;;;;;;16.30;3.22;;;;;;;;;;10322863;28;20042;-62
2022/06/28 12:34:17;;;;;;;18.52;3.92;;;;;;;;;;10326228;28;20482;-59
2022/06/28 12:39:18;;;;;;;12.63;3.53;;;;;;;;;;10327192;28;20029;-64
2022/06/28 12:44:18;;;;;;;15.15;3.55;;;;;;;;;;10327767;28;20022;-56
2022/06/28 12:49:23;;;;;;;13.63;3.42;;;;;;;;;;10310785;28;20027;-63
2022/06/28 12:54:24;;;;;;;16.55;3.38;;;;;;;;;;10295504;28;20126;-61
2022/06/28 12:59:24;;;;;;;16.27;3.53;;;;;;;;;;10324454;28;20030;-64
2022/06/28 13:04:25;;;;;;;9.10;3.13;;;;;;;;;;10327695;28;20038;-60
2022/06/28 13:09:26;;;;;;;10.20;3.33;;;;;;;;;;10326316;28;20077;-62
2022/06/28 13:14:27;;;;;;;13.48;3.20;;;;;;;;;;10326406;28;20057;-61
2022/06/28 13:19:27;;;;;;;10.38;2.78;;;;;;;;;;10324814;28;20042;-64
2022/06/28 13:24:28;;;;;;;12.18;3.15;;;;;;;;;;10334848;28;20743;-62
2022/06/28 13:29:28;;;;;;;8.43;2.92;;;;;;;;;;10309783;28;20026;-59
2022/06/28 13:34:30;;;;;;;12.07;2.60;;;;;;;;;;10317257;28;20050;-58
2022/06/28 13:39:30;;;;;;;13.82;3.28;;;;;;;;;;10320987;28;20030;-58
2022/06/28 13:44:31;;;;;;;9.38;2.55;;;;;;;;;;10319439;28;20022;-58
2022/06/28 13:49:31;;;;;;;7.85;2.92;;;;;;;;;;10319040;28;20494;-57
2022/06/28 13:54:32;;;;;;;16.27;3.42;;;;;;;;;;10317126;28;20143;-56
2022/06/28 13:59:33;;;;;;;19.40;2.97;;;;;;;;;;10318862;28;20077;-61
2022/06/28 14:04:33;;;;;;;6.85;2.72;;;;;;;;;;10320015;28;20474;-62
2022/06/28 14:09:34;;;;;;;7.13;2.47;;;;;;;;;;10321419;28;20031;-55
2022/06/28 14:14:36;;;;;;;14.07;3.45;;;;;;;;;;10320058;28;20050;-48
2022/06/28 14:19:37;;;;;;;7.45;2.85;;;;;;;;;;10319792;28;20034;-50
2022/06/28 14:24:37;;;;;;;8.43;3.40;;;;;;;;;;10318438;28;20050;-55
2022/06/28 14:29:38;;;;;;;7.50;2.80;;;;;;;;;;10319969;28;20022;-61
2022/06/28 14:34:39;;;;;;;7.18;2.42;;;;;;;;;;10312673;28;20474;-63
2022/06/28 14:39:40;;;;;;;8.45;2.42;;;;;;;;;;10322235;28;20133;-63
2022/06/28 14:44:40;;;;;;;10.27;2.60;;;;;;;;;;10322855;28;20445;-60
2022/06/28 14:49:42;;;;;;;9.13;3.20;;;;;;;;;;10328980;28;20034;-61
2022/06/28 14:54:42;;;;;;;6.97;2.38;;;;;;;;;;10332180;28;20037;-57
2022/06/28 14:59:43;;;;;;;8.45;3.10;;;;;;;;;;10331314;28;20481;-59
2022/06/28 15:04:44;;;;;;;6.45;2.63;;;;;;;;;;10331260;28;20035;-61
2022/06/28 15:09:45;;;;;;;5.90;2.35;;;;;;;;;;10331490;28;20461;-54
2022/06/28 15:14:45;;;;;;;5.60;2.28;;;;;;;;;;10329496;28;20038;-59
2022/06/28 15:19:46;;;;;;;8.30;2.78;;;;;;;;;;10328128;28;20077;-51
2022/06/28 15:35:26;;;;;;;6.45;2.40;;;;;;;;;;10324261;28;20026;-47
2022/06/28 15:40:27;;;;;;;5.63;1.92;;;;;;;;;;10332318;28;20030;-48
2022/06/28 15:45:28;;;;;;;8.73;2.53;;;;;;;;;;10339672;28;20026;-49
2022/06/28 15:50:28;;;;;;;4.60;2.05;;;;;;;;;;10330425;28;20026;-60
2022/06/28 15:55:29;;;;;;;8.10;2.63;;;;;;;;;;10323667;28;20593;-48
2022/06/28 16:00:30;;;;;;;7.10;2.47;;;;;;;;;;10315568;28;20034;-48
2022/06/28 16:05:31;;;;;;;8.40;2.78;;;;;;;;;;10318396;28;20065;-48
2022/06/28 16:10:32;;;;;;;5.88;2.28;;;;;;;;;;10328083;28;20498;-47
2022/06/28 16:15:36;;;;;;;11.27;2.42;;;;;;;;;;10321585;28;20042;-48
2022/06/28 16:20:39;;;;;;;6.07;2.67;;;;;;;;;;10324309;28;20165;-48
2022/06/28 16:25:39;;;;;;;7.13;2.42;;;;;;;;;;10326935;28;20034;-54
2022/06/28 16:30:40;;;;;;;6.70;2.42;;;;;;;;;;10324375;28;20483;-48
2022/06/28 16:35:42;;;;;;;13.48;3.00;;;;;;;;;;10350401;28;20125;-47
2022/06/28 16:40:43;;;;;;;9.38;2.72;;;;;;;;;;10342122;28;20052;-48
2022/06/28 16:45:45;;;;;;;6.13;2.25;;;;;;;;;;10325937;28;20038;-56
2022/06/28 16:50:47;;;;;;;9.35;2.53;;;;;;;;;;10326047;28;20450;-60
2022/06/28 16:55:47;;;;;;;7.68;2.60;;;;;;;;;;10321770;28;20041;-48
2022/06/28 17:00:50;;;;;;;5.45;2.38;;;;;;;;;;10320020;28;20045;-47
2022/06/28 17:05:50;;;;;;;6.00;2.10;;;;;;;;;;10322626;28;20568;-62
2022/06/28 17:10:51;;;;;;;5.22;2.20;;;;;;;;;;10323846;28;20104;-59
2022/06/28 17:15:52;;;;;;;5.03;2.38;;;;;;;;;;10325453;28;20040;-47
2022/06/28 17:20:52;;;;;;;9.00;2.25;;;;;;;;;;10324279;28;20041;-47
2022/06/28 17:25:53;;;;;;;7.63;2.53;;;;;;;;;;10328550;28;20034;-48
2022/06/28 17:30:55;;;;;;;7.53;2.88;;;;;;;;;;10326047;28;20057;-50
2022/06/28 17:35:56;;;;;;;3.75;1.88;;;;;;;;;;10321844;28;20039;-63
2022/06/28 17:40:56;;;;;;;9.07;2.42;;;;;;;;;;10309419;28;20049;-48
2022/06/28 17:45:57;;;;;;;7.68;2.58;;;;;;;;;;10324693;28;20033;-51
2022/06/28 17:50:58;;;;;;;14.82;3.05;;;;;;;;;;10330456;28;20390;-47
2022/06/28 17:55:58;;;;;;;9.82;2.60;;;;;;;;;;10328101;28;20613;-47
2022/06/28 18:00:59;;;;;;;8.82;2.83;;;;;;;;;;10323969;28;20026;-51
2022/06/28 18:05:59;;;;;;;11.40;2.78;;;;;;;;;;10321511;28;20023;-49
2022/06/28 18:11:01;;;;;;;10.68;2.90;;;;;;;;;;10325492;28;20391;-53
2022/06/28 18:16:01;;;;;;;7.28;2.47;;;;;;;;;;10321177;28;20495;-59
2022/06/28 18:21:02;;;;;;;9.05;2.90;;;;;;;;;;10338517;28;20030;-49
2022/06/28 18:26:04;;;;;;;15.25;3.63;;;;;;;;;;10341737;28;20053;-46
2022/06/28 18:31:05;;;;;;;20.40;3.92;;;;;;;;;;10336372;28;20113;-48
2022/06/28 18:36:06;;;;;;;24.05;4.15;;;;;;;;;;10337065;28;20030;-46
2022/06/28 18:41:07;;;;;;;23.85;4.80;;;;;;;;;;10337220;28;20109;-47
2022/06/28 18:46:08;;;;;;;23.52;5.25;;;;;;;;;;10331282;28;20034;-46
2022/06/28 18:51:08;;;;;;;29.20;5.30;;;;;;;;;;10331039;28;20109;-47
2022/06/28 18:56:09;;;;;;;26.85;5.30;;;;;;;;;;10343637;28;20385;-46
2022/06/28 19:01:10;;;;;;;28.70;4.75;;;;;;;;;;10335812;28;20022;-48
2022/06/28 19:06:11;;;;;;;38.45;6.03;;;;;;;;;;10330655;28;20045;-46
2022/06/28 19:11:13;;;;;;;22.35;4.72;;;;;;;;;;10328081;28;20030;-46
2022/06/28 19:16:14;;;;;;;21.58;4.97;;;;;;;;;;10323826;28;20058;-48
2022/06/28 19:21:14;;;;;;;25.48;4.70;;;;;;;;;;10330374;28;20125;-47
2022/06/28 19:26:15;;;;;;;27.13;5.10;;;;;;;;;;10319305;28;20112;-46
2022/06/28 19:31:16;;;;;;;21.13;4.72;;;;;;;;;;10328136;28;20394;-48
2022/06/28 19:36:16;;;;;;;31.38;5.55;;;;;;;;;;10318493;28;20394;-48
2022/06/28 19:41:17;;;;;;;22.70;4.43;;;;;;;;;;10315849;28;20034;-54
2022/06/28 19:46:18;;;;;;;28.45;5.53;;;;;;;;;;10324543;28;20030;-46
2022/06/28 19:51:19;;;;;;;22.52;4.80;;;;;;;;;;10331634;28;20049;-46
2022/06/28 19:56:19;;;;;;;18.92;4.45;;;;;;;;;;10326541;28;20030;-48
2022/06/28 20:01:20;;;;;;;19.35;4.85;;;;;;;;;;10324474;28;20046;-46
2022/06/28 20:06:21;;;;;;;25.40;5.20;;;;;;;;;;10309653;28;20026;-46
2022/06/28 20:11:21;;;;;;;20.30;5.10;;;;;;;;;;10324638;28;20030;-47
2022/06/28 20:16:22;;;;;;;18.45;5.03;;;;;;;;;;10313995;28;20393;-46
2022/06/28 20:21:23;;;;;;;15.25;4.25;;;;;;;;;;10316939;28;20050;-46
2022/06/28 20:26:25;;;;;;;12.02;3.50;;;;;;;;;;10316738;28;20043;-47
2022/06/28 20:31:26;;;;;;;14.40;4.47;;;;;;;;;;10323031;28;20034;-47
2022/06/28 20:36:26;;;;;;;16.33;4.05;;;;;;;;;;10328540;28;20069;-46
2022/06/28 20:46:46;;;;;;;14.38;4.30;;;;;;;;;;10328330;28;20038;-48
2022/06/28 20:51:46;;;;;;;21.65;3.80;;;;;;;;;;10320808;28;20034;-46
2022/06/28 20:56:47;;;;;;;15.60;5.03;;;;;;;;;;10327069;28;20038;-52
2022/06/28 21:01:48;;;;;;;19.55;4.53;;;;;;;;;;10326728;28;20042;-48
2022/06/28 21:06:48;;;;;;;19.73;4.00;;;;;;;;;;10323209;28;20097;-58
2022/06/28 21:11:50;;;;;;;17.48;4.47;;;;;;;;;;10328016;28;20108;-51
2022/06/28 21:16:51;;;;;;;21.80;4.85;;;;;;;;;;10328799;28;20141;-55
2022/06/28 21:21:51;;;;;;;21.65;5.68;;;;;;;;;;10313165;28;20053;-60
2022/06/28 21:26:52;;;;;;;28.30;6.05;;;;;;;;;;10320024;28;20042;-59
2022/06/28 21:31:53;;;;;;;42.90;7.18;;;;;;;;;;10314289;28;20026;-58
2022/06/28 21:36:53;;;;;;;26.80;6.05;;;;;;;;;;10315647;28;20482;-59
2022/06/28 21:41:54;;;;;;;25.60;6.10;;;;;;;;;;10339935;28;20532;-54
2022/06/28 21:46:54;;;;;;;34.10;6.80;;;;;;;;;;10319874;28;20034;-48
2022/06/28 21:51:55;;;;;;;26.30;5.55;;;;;;;;;;10324502;28;20101;-58
2022/06/28 21:56:55;;;;;;;17.98;5.60;;;;;;;;;;10324716;28;20045;-48
2022/06/28 22:01:56;;;;;;;22.30;5.38;;;;;;;;;;10325386;28;20508;-50
2022/06/28 22:06:57;;;;;;;19.73;5.35;;;;;;;;;;10325086;28;20363;-55
2022/06/28 22:11:57;;;;;;;26.95;5.25;;;;;;;;;;10325940;28;20109;-46
2022/06/28 22:16:58;;;;;;;19.88;4.10;;;;;;;;;;10324447;28;20042;-45
2022/06/28 22:21:58;;;;;;;14.65;4.43;;;;;;;;;;10317653;28;20041;-45
2022/06/28 22:26:59;;;;;;;16.00;4.20;;;;;;;;;;10320647;28;20047;-56
2022/06/28 22:32:00;;;;;;;16.50;4.72;;;;;;;;;;10331895;28;20034;-59
2022/06/28 22:37:01;;;;;;;16.90;4.25;;;;;;;;;;10324591;28;20030;-49
2022/06/28 22:42:01;;;;;;;8.45;3.58;;;;;;;;;;10325305;28;20378;-47
2022/06/28 22:47:02;;;;;;;13.10;3.92;;;;;;;;;;10324454;28;20034;-47
2022/06/28 22:52:03;;;;;;;14.48;4.13;;;;;;;;;;10325032;28;20034;-47
2022/06/28 22:57:04;;;;;;;14.50;3.72;;;;;;;;;;10324308;28;20045;-47
2022/06/28 23:02:04;;;;;;;12.07;3.53;;;;;;;;;;10325816;28;20264;-47
2022/06/28 23:07:05;;;;;;;12.68;3.83;;;;;;;;;;10333047;28;20105;-47
2022/06/28 23:12:06;;;;;;;11.88;3.83;;;;;;;;;;10334848;28;20030;-47
2022/06/28 23:17:07;;;;;;;9.25;3.47;;;;;;;;;;10331359;28;20413;-47
2022/06/28 23:22:07;;;;;;;11.95;3.58;;;;;;;;;;10332355;28;20407;-45
2022/06/28 23:27:08;;;;;;;12.93;2.92;;;;;;;;;;10331910;28;20061;-45
2022/06/28 23:32:08;;;;;;;10.93;3.75;;;;;;;;;;10337830;28;20554;-46
2022/06/28 23:37:09;;;;;;;13.07;3.40;;;;;;;;;;10330856;28;20116;-45
2022/06/28 23:42:09;;;;;;;12.75;3.63;;;;;;;;;;10330827;28;20030;-51
2022/06/28 23:47:10;;;;;;;14.02;3.72;;;;;;;;;;10330265;28;20034;-45
2022/06/28 23:52:11;;;;;;;11.13;3.53;;;;;;;;;;10330080;28;20038;-45
2022/06/28 23:57:11;;;;;;;9.45;3.30;;;;;;;;;;10330092;28;20062;-46
